createdAt,value
2023-05-06T00:01:21.596Z,77.20
2023-05-06T00:03:49.492Z,77.30
2023-05-06T00:06:17.319Z,77.43
2023-05-06T00:08:46.656Z,77.68
2023-05-06T00:11:14.280Z,77.71
2023-05-06T00:13:41.943Z,77.74
2023-05-06T00:16:09.554Z,77.97
2023-05-06T00:18:37.153Z,77.91
2023-05-06T00:21:04.968Z,78.31
2023-05-06T00:23:32.642Z,78.29
2023-05-06T00:26:01.583Z,78.37
2023-05-06T00:28:29.138Z,78.34
2023-05-06T00:30:56.701Z,78.27
2023-05-06T00:33:24.249Z,78.35
2023-05-06T00:35:53.210Z,78.50
2023-05-06T00:38:20.750Z,78.61
2023-05-06T00:40:48.345Z,78.69
2023-05-06T00:43:17.247Z,78.88
2023-05-06T00:45:44.822Z,78.76
2023-05-06T00:48:12.570Z,79.10
2023-05-06T00:50:41.593Z,80.56
2023-05-06T00:53:10.421Z,79.57
2023-05-06T00:55:38.952Z,79.60
2023-05-06T00:58:07.093Z,79.43
2023-05-06T01:00:36.021Z,79.89
2023-05-06T01:03:03.706Z,81.65
2023-05-06T01:05:36.704Z,80.26
2023-05-06T01:08:10.374Z,80.60
2023-05-06T01:10:45.958Z,83.47
2023-05-06T01:13:18.274Z,80.73
2023-05-06T01:15:49.047Z,79.79
2023-05-06T01:18:18.364Z,79.97
2023-05-06T01:20:49.664Z,81.14
2023-05-06T01:23:19.505Z,80.22
2023-05-06T01:25:47.367Z,82.01
2023-05-06T01:28:15.129Z,80.87
2023-05-06T01:30:50.853Z,79.04
2023-05-06T01:33:24.787Z,80.23
2023-05-06T01:36:02.959Z,78.82
2023-05-06T01:38:38.652Z,78.62
2023-05-06T01:41:06.728Z,78.75
2023-05-06T01:43:38.712Z,78.21
2023-05-06T01:46:10.255Z,81.41
2023-05-06T01:48:40.381Z,81.45
2023-05-06T01:51:10.674Z,80.48
2023-05-06T01:53:39.833Z,81.14
2023-05-06T01:56:08.350Z,82.64
2023-05-06T01:58:36.397Z,80.77
2023-05-06T02:01:03.931Z,79.57
2023-05-06T02:03:31.514Z,80.07
2023-05-06T02:05:59.074Z,80.02
2023-05-06T02:08:26.591Z,80.54
2023-05-06T02:10:55.475Z,80.79
2023-05-06T02:13:23.034Z,80.39
2023-05-06T02:15:53.823Z,82.08
2023-05-06T02:18:21.609Z,81.13
2023-05-06T02:20:49.227Z,81.35
2023-05-06T02:23:16.744Z,80.59
2023-05-06T02:25:44.346Z,80.92
2023-05-06T02:28:13.295Z,80.92
2023-05-06T02:30:40.834Z,80.97
2023-05-06T02:33:08.344Z,80.43
2023-05-06T02:35:35.863Z,79.28
2023-05-06T02:38:04.204Z,79.51
2023-05-06T02:40:31.714Z,79.00
2023-05-06T02:42:59.314Z,81.07
2023-05-06T02:45:28.258Z,81.72
2023-05-06T02:47:55.847Z,79.95
2023-05-06T02:50:23.408Z,80.06
2023-05-06T02:52:50.935Z,79.91
2023-05-06T02:55:19.884Z,79.23
2023-05-06T02:57:47.437Z,80.18
2023-05-06T03:00:15.519Z,78.85
2023-05-06T03:02:44.565Z,78.67
2023-05-06T03:05:12.385Z,79.06
2023-05-06T03:07:40.159Z,79.69
2023-05-06T03:10:08.540Z,80.07
2023-05-06T03:12:36.177Z,78.25
2023-05-06T03:15:03.780Z,80.20
2023-05-06T03:17:31.286Z,78.80
2023-05-06T03:20:00.141Z,81.01
2023-05-06T03:22:27.653Z,79.27
2023-05-06T03:24:55.180Z,79.87
2023-05-06T03:27:22.702Z,81.14
2023-05-06T03:29:50.206Z,79.46
2023-05-06T03:32:17.718Z,78.55
2023-05-06T03:34:45.244Z,78.11
2023-05-06T03:37:14.256Z,78.06
2023-05-06T03:39:41.738Z,78.81
2023-05-06T03:42:09.841Z,78.77
2023-05-06T03:44:37.541Z,79.34
2023-05-06T03:47:05.044Z,78.70
2023-05-06T03:49:32.629Z,78.75
2023-05-06T03:52:00.661Z,80.72
2023-05-06T03:54:29.637Z,79.34
2023-05-06T03:56:57.164Z,79.66
2023-05-06T03:59:24.694Z,80.76
2023-05-06T04:01:52.228Z,80.61
2023-05-06T04:04:19.764Z,80.36
2023-05-06T04:06:47.270Z,80.52
2023-05-06T04:09:14.792Z,79.78
2023-05-06T04:11:43.635Z,81.48
2023-05-06T04:14:11.227Z,81.98
2023-05-06T04:16:38.919Z,80.35
2023-05-06T04:19:06.996Z,80.16
2023-05-06T04:21:34.570Z,80.26
2023-05-06T04:24:02.465Z,80.59
2023-05-06T04:26:29.982Z,81.67
2023-05-06T04:28:59.251Z,80.08
2023-05-06T04:31:29.630Z,78.83
2023-05-06T04:33:57.224Z,78.85
2023-05-06T04:36:24.849Z,78.64
2023-05-06T04:38:52.737Z,79.55
2023-05-06T04:41:20.482Z,81.69
2023-05-06T04:43:48.078Z,80.08
2023-05-06T04:46:17.270Z,80.94
2023-05-06T04:48:44.925Z,81.34
2023-05-06T04:51:12.541Z,78.50
2023-05-06T04:53:40.709Z,77.52
2023-05-06T04:56:09.097Z,77.59
2023-05-06T04:58:36.603Z,79.90
2023-05-06T05:01:06.198Z,79.82
2023-05-06T05:03:35.606Z,80.37
2023-05-06T05:06:03.198Z,81.23
2023-05-06T05:08:30.852Z,79.73
2023-05-06T05:10:58.377Z,81.30
2023-05-06T05:13:25.967Z,79.86
2023-05-06T05:15:55.786Z,79.05
2023-05-06T05:18:23.459Z,80.29
2023-05-06T05:20:53.413Z,78.79
2023-05-06T05:23:21.209Z,78.25
2023-05-06T05:25:48.894Z,80.63
2023-05-06T05:28:16.546Z,78.67
2023-05-06T05:30:44.158Z,78.92
2023-05-06T05:33:11.852Z,78.13
2023-05-06T05:35:39.594Z,79.98
2023-05-06T05:38:08.542Z,81.04
2023-05-06T05:40:37.281Z,80.23
2023-05-06T05:43:05.033Z,80.05
2023-05-06T05:45:32.663Z,80.89
2023-05-06T05:48:00.355Z,80.67
2023-05-06T05:50:28.277Z,80.86
2023-05-06T05:52:55.844Z,79.99
2023-05-06T05:55:24.777Z,78.03
2023-05-06T05:57:52.285Z,77.44
2023-05-06T06:00:20.632Z,76.37
2023-05-06T06:02:48.205Z,78.63
2023-05-06T06:05:15.832Z,77.26
2023-05-06T06:07:43.352Z,76.77
2023-05-06T06:10:13.333Z,76.56
2023-05-06T06:12:44.116Z,75.93
2023-05-06T06:15:12.615Z,77.11
2023-05-06T06:17:40.984Z,78.14
2023-05-06T06:20:09.773Z,77.79
2023-05-06T06:22:37.331Z,78.73
2023-05-06T06:25:05.227Z,76.98
2023-05-06T06:27:35.664Z,77.17
2023-05-06T06:30:05.215Z,76.35
2023-05-06T06:32:32.822Z,76.72
2023-05-06T06:35:00.500Z,76.08
2023-05-06T06:37:28.024Z,75.01
2023-05-06T06:39:55.517Z,75.00
2023-05-06T06:42:23.198Z,74.56
2023-05-06T06:44:50.692Z,74.57
2023-05-06T06:47:19.558Z,76.19
2023-05-06T06:49:47.081Z,74.47
2023-05-06T06:52:14.643Z,76.17
2023-05-06T06:54:42.261Z,74.10
2023-05-06T06:57:10.054Z,74.56
2023-05-06T06:59:37.549Z,73.49
2023-05-06T07:02:05.092Z,73.06
2023-05-06T07:04:33.989Z,72.87
2023-05-06T07:07:01.542Z,72.60
2023-05-06T07:09:29.336Z,73.15
2023-05-06T07:11:56.882Z,72.94
2023-05-06T07:14:25.746Z,72.44
2023-05-06T07:16:53.281Z,72.93
2023-05-06T07:19:20.830Z,71.81
2023-05-06T07:21:49.725Z,71.69
2023-05-06T07:24:17.249Z,70.95
2023-05-06T07:26:45.045Z,70.38
2023-05-06T07:29:12.545Z,71.20
2023-05-06T07:31:40.208Z,69.88
2023-05-06T07:34:07.984Z,71.52
2023-05-06T07:36:40.499Z,71.80
2023-05-06T07:39:09.441Z,69.23
2023-05-06T07:41:37.077Z,69.46
2023-05-06T07:44:05.046Z,67.55
2023-05-06T07:46:32.776Z,66.99
2023-05-06T07:49:00.460Z,65.88
2023-05-06T07:51:28.116Z,66.07
2023-05-06T07:53:55.743Z,65.19
2023-05-06T07:56:24.651Z,65.06
2023-05-06T07:58:52.155Z,66.93
2023-05-06T08:01:19.712Z,63.58
2023-05-06T08:03:47.374Z,63.53
2023-05-06T08:06:15.009Z,63.23
2023-05-06T08:08:42.512Z,61.94
2023-05-06T08:11:10.157Z,63.77
2023-05-06T08:13:39.055Z,61.44
2023-05-06T08:16:07.815Z,63.27
2023-05-06T08:18:35.353Z,60.89
2023-05-06T08:21:02.880Z,59.76
2023-05-06T08:23:31.892Z,59.04
2023-05-06T08:26:00.021Z,60.60
2023-05-06T08:28:29.190Z,57.81
2023-05-06T08:30:58.048Z,56.65
2023-05-06T08:33:25.579Z,58.10
2023-05-06T08:35:53.088Z,56.45
2023-05-06T08:38:20.653Z,55.56
2023-05-06T08:40:50.344Z,57.86
2023-05-06T08:43:21.771Z,53.90
2023-05-06T08:45:50.596Z,53.97
2023-05-06T08:48:19.726Z,53.46
2023-05-06T08:50:49.980Z,53.78
2023-05-06T08:53:17.697Z,54.06
2023-05-06T08:55:46.374Z,54.45
2023-05-06T08:58:16.865Z,54.01
2023-05-06T09:00:49.743Z,53.52
2023-05-06T09:03:18.968Z,53.42
2023-05-06T09:05:46.679Z,56.35
2023-05-06T09:08:14.884Z,53.74
2023-05-06T09:10:45.277Z,51.63
2023-05-06T09:13:14.558Z,52.01
2023-05-06T09:15:42.785Z,53.49
2023-05-06T09:18:10.640Z,52.08
2023-05-06T09:20:42.472Z,50.83
2023-05-06T09:23:10.131Z,52.13
2023-05-06T09:25:37.892Z,51.30
2023-05-06T09:28:06.090Z,50.74
2023-05-06T09:30:33.647Z,50.47
2023-05-06T09:33:04.675Z,49.05
2023-05-06T09:35:37.989Z,49.34
2023-05-06T09:38:07.586Z,48.16
2023-05-06T09:40:36.006Z,52.56
2023-05-06T09:43:04.337Z,49.33
2023-05-06T09:45:32.699Z,52.23
2023-05-06T09:48:00.431Z,50.47
2023-05-06T09:50:36.536Z,49.45
2023-05-06T09:53:07.461Z,51.38
2023-05-06T09:55:36.311Z,51.05
2023-05-06T09:58:04.726Z,53.62
2023-05-06T10:00:33.213Z,49.81
2023-05-06T10:03:01.817Z,52.94
2023-05-06T10:05:30.114Z,49.60
2023-05-06T10:07:58.320Z,48.17
2023-05-06T10:10:29.491Z,46.34
2023-05-06T10:12:57.995Z,47.66
2023-05-06T10:15:26.914Z,47.54
2023-05-06T10:17:56.174Z,48.02
2023-05-06T10:20:27.144Z,51.30
2023-05-06T10:23:04.482Z,49.27
2023-05-06T10:25:37.253Z,50.87
2023-05-06T10:28:06.511Z,49.14
2023-05-06T10:30:36.824Z,48.16
2023-05-06T10:33:06.802Z,48.53
2023-05-06T10:35:45.529Z,48.72
2023-05-06T10:38:17.092Z,49.02
2023-05-06T10:40:46.754Z,48.50
2023-05-06T10:43:25.264Z,49.51
2023-05-06T10:46:04.143Z,51.31
2023-05-06T10:48:32.682Z,50.90
2023-05-06T10:51:31.502Z,47.73
2023-05-06T10:54:03.022Z,47.55
2023-05-06T10:56:33.622Z,46.89
2023-05-06T10:59:08.016Z,48.25
2023-05-06T11:01:36.421Z,51.22
2023-05-06T11:04:09.497Z,48.95
2023-05-06T11:06:40.237Z,48.45
2023-05-06T11:09:16.622Z,47.25
2023-05-06T11:11:54.368Z,47.16
2023-05-06T11:14:29.670Z,47.35
2023-05-06T11:16:58.853Z,45.44
2023-05-06T11:19:28.098Z,47.93
2023-05-06T11:21:57.562Z,48.83
2023-05-06T11:24:27.652Z,47.05
2023-05-06T11:27:02.128Z,48.44
2023-05-06T11:29:29.646Z,45.79
2023-05-06T11:31:57.182Z,48.02
2023-05-06T11:34:27.194Z,45.27
2023-05-06T11:37:02.238Z,44.82
2023-05-06T11:39:36.492Z,48.35
2023-05-06T11:42:09.068Z,44.76
2023-05-06T11:44:38.119Z,45.40
2023-05-06T11:47:08.099Z,45.16
2023-05-06T11:49:39.972Z,45.62
2023-05-06T11:52:09.477Z,44.96
2023-05-06T11:54:39.500Z,45.64
2023-05-06T11:57:08.803Z,45.44
2023-05-06T11:59:38.183Z,45.85
2023-05-06T12:02:06.957Z,46.79
2023-05-06T12:04:38.714Z,45.64
2023-05-06T12:07:07.497Z,46.18
2023-05-06T12:09:37.064Z,48.58
2023-05-06T12:12:05.791Z,46.00
2023-05-06T12:14:35.194Z,45.22
2023-05-06T12:17:03.554Z,45.71
2023-05-06T12:19:31.919Z,46.14
2023-05-06T12:22:17.980Z,46.83
2023-05-06T12:24:45.713Z,46.43
2023-05-06T12:27:13.374Z,46.34
2023-05-06T12:29:53.693Z,47.56
2023-05-06T12:32:21.226Z,47.09
2023-05-06T12:34:48.743Z,45.43
2023-05-06T12:37:25.476Z,44.56
2023-05-06T12:39:53.049Z,44.98
2023-05-06T12:42:21.366Z,45.80
2023-05-06T12:44:50.647Z,46.63
2023-05-06T12:47:22.553Z,46.52
2023-05-06T12:49:51.891Z,44.84
2023-05-06T12:52:21.410Z,46.34
2023-05-06T12:54:49.318Z,45.81
2023-05-06T12:57:16.936Z,44.23
2023-05-06T12:59:44.954Z,43.08
2023-05-06T13:02:14.754Z,43.62
2023-05-06T13:04:43.017Z,43.53
2023-05-06T13:07:10.564Z,43.56
2023-05-06T13:09:38.256Z,43.55
2023-05-06T13:12:07.505Z,43.07
2023-05-06T13:14:36.932Z,42.73
2023-05-06T13:17:06.812Z,42.87
2023-05-06T13:19:36.102Z,42.33
2023-05-06T13:22:03.922Z,41.07
2023-05-06T13:24:33.264Z,40.99
2023-05-06T13:27:01.359Z,41.69
2023-05-06T13:29:29.441Z,41.37
2023-05-06T13:31:57.093Z,42.34
2023-05-06T13:34:24.768Z,40.53
2023-05-06T13:36:54.624Z,40.10
2023-05-06T13:39:22.638Z,40.76
2023-05-06T13:41:51.130Z,39.62
2023-05-06T13:44:19.289Z,42.50
2023-05-06T13:46:47.073Z,41.52
2023-05-06T13:49:14.831Z,40.31
2023-05-06T13:51:42.411Z,39.76
2023-05-06T13:54:11.310Z,39.15
2023-05-06T13:56:38.863Z,38.82
2023-05-06T13:59:08.344Z,40.40
2023-05-06T14:01:36.525Z,41.04
2023-05-06T14:04:04.432Z,38.96
2023-05-06T14:06:32.179Z,39.44
2023-05-06T14:08:59.794Z,38.49
2023-05-06T14:11:28.709Z,38.77
2023-05-06T14:13:56.664Z,38.59
2023-05-06T14:16:24.201Z,38.80
2023-05-06T14:18:51.735Z,41.51
2023-05-06T14:21:19.282Z,38.59
2023-05-06T14:23:46.849Z,38.13
2023-05-06T14:26:14.861Z,39.10
2023-05-06T14:28:43.766Z,38.44
2023-05-06T14:31:11.430Z,39.01
2023-05-06T14:33:39.438Z,39.30
2023-05-06T14:36:07.610Z,38.90
2023-05-06T14:38:35.144Z,39.63
2023-05-06T14:41:02.731Z,38.97
2023-05-06T14:43:30.260Z,39.25
2023-05-06T14:45:59.170Z,38.24
2023-05-06T14:48:26.723Z,38.95
2023-05-06T14:50:54.285Z,39.15
2023-05-06T14:53:21.844Z,38.78
2023-05-06T14:55:49.412Z,37.49
2023-05-06T14:58:17.733Z,37.07
2023-05-06T15:00:45.863Z,36.75
2023-05-06T15:03:27.326Z,36.50
2023-05-06T15:06:08.190Z,36.96
2023-05-06T15:08:48.464Z,37.56
2023-05-06T15:11:36.531Z,39.08
2023-05-06T15:24:55.879Z,36.94
2023-05-06T15:27:46.360Z,38.22
2023-05-06T15:30:52.582Z,37.59
2023-05-06T15:33:50.960Z,37.49
2023-05-06T15:39:58.882Z,39.92
2023-05-06T15:43:08.376Z,38.16
2023-05-06T15:45:50.915Z,38.27
2023-05-06T15:51:47.085Z,39.19
2023-05-06T15:54:40.909Z,39.57
2023-05-06T15:57:36.257Z,40.27
2023-05-06T16:00:47.256Z,39.24
2023-05-06T16:06:21.330Z,39.02
2023-05-06T16:09:01.927Z,42.18
2023-05-06T16:11:48.737Z,40.94
2023-05-06T16:14:29.104Z,39.87
2023-05-06T16:17:16.102Z,39.23
2023-05-06T16:20:28.904Z,39.58
2023-05-06T16:23:14.975Z,41.28
2023-05-06T16:26:10.820Z,39.70
2023-05-06T16:29:10.676Z,39.88
2023-05-06T16:31:54.403Z,39.85
2023-05-06T16:40:36.847Z,40.13
2023-05-06T16:43:35.374Z,39.49
2023-05-06T16:47:09.844Z,40.39
2023-05-06T16:53:15.287Z,42.33
2023-05-06T16:55:51.628Z,39.85
2023-05-06T16:58:20.667Z,40.44
2023-05-06T17:00:51.882Z,39.92
2023-05-06T17:03:21.331Z,39.87
2023-05-06T17:05:50.550Z,39.73
2023-05-06T17:08:18.930Z,39.58
2023-05-06T17:10:48.479Z,39.80
2023-05-06T17:13:16.247Z,39.70
2023-05-06T17:15:44.291Z,39.81
2023-05-06T17:18:12.649Z,40.41
2023-05-06T17:20:54.343Z,41.34
2023-05-06T17:23:23.405Z,41.39
2023-05-06T17:25:54.068Z,41.59
2023-05-06T17:28:27.894Z,41.91
2023-05-06T17:30:59.438Z,42.17
2023-05-06T17:33:27.216Z,42.29
2023-05-06T17:35:55.190Z,42.53
2023-05-06T17:38:23.300Z,42.75
2023-05-06T17:40:53.110Z,43.00
2023-05-06T17:43:21.466Z,42.90
2023-05-06T17:45:50.881Z,43.28
2023-05-06T17:48:19.196Z,43.08
2023-05-06T17:50:46.950Z,43.37
2023-05-06T17:53:14.759Z,43.48
2023-05-06T17:55:42.379Z,43.29
2023-05-06T17:58:11.821Z,43.55
2023-05-06T18:00:39.500Z,44.62
2023-05-06T18:03:07.140Z,45.06
2023-05-06T18:05:34.771Z,45.34
2023-05-06T18:08:02.377Z,44.66
2023-05-06T18:10:29.916Z,45.00
2023-05-06T18:12:57.690Z,44.66
2023-05-06T18:15:26.907Z,44.42
2023-05-06T18:17:54.473Z,44.75
2023-05-06T18:20:22.076Z,45.39
2023-05-06T18:22:49.646Z,46.88
2023-05-06T18:25:17.294Z,47.54
2023-05-06T18:27:44.803Z,48.12
2023-05-06T18:30:13.008Z,48.93
2023-05-06T18:32:41.966Z,49.54
2023-05-06T18:35:10.891Z,49.55
2023-05-06T18:37:39.235Z,50.21
2023-05-06T18:40:09.137Z,50.52
2023-05-06T18:42:36.784Z,50.72
2023-05-06T18:45:06.954Z,50.74
2023-05-06T18:47:36.844Z,50.86
2023-05-06T18:50:06.933Z,51.77
2023-05-06T18:52:36.317Z,52.02
2023-05-06T18:55:04.915Z,51.88
2023-05-06T18:57:32.473Z,51.77
2023-05-06T18:59:59.976Z,53.61
2023-05-06T19:02:27.705Z,53.57
2023-05-06T19:04:55.302Z,52.52
2023-05-06T19:07:26.360Z,52.19
2023-05-06T19:09:55.213Z,52.60
2023-05-06T19:12:23.564Z,53.17
2023-05-06T19:14:51.185Z,53.35
2023-05-06T19:17:18.696Z,53.03
2023-05-06T19:19:48.534Z,53.24
2023-05-06T19:22:17.038Z,53.00
2023-05-06T19:24:44.780Z,53.13
2023-05-06T19:27:13.749Z,53.38
2023-05-06T19:29:41.331Z,53.15
2023-05-06T19:32:09.676Z,53.53
2023-05-06T19:34:37.362Z,53.60
2023-05-06T19:37:04.972Z,54.10
2023-05-06T19:39:32.597Z,54.41
2023-05-06T19:42:00.147Z,54.28
2023-05-06T19:44:28.984Z,54.57
2023-05-06T19:46:56.523Z,54.96
2023-05-06T19:49:24.118Z,55.24
2023-05-06T19:51:51.617Z,55.27
2023-05-06T19:54:19.884Z,55.29
2023-05-06T19:56:47.582Z,55.34
2023-05-06T19:59:15.118Z,55.77
2023-05-06T20:01:44.268Z,55.85
2023-05-06T20:04:12.100Z,56.14
2023-05-06T20:06:39.640Z,56.38
2023-05-06T20:09:07.203Z,56.54
2023-05-06T20:11:35.041Z,56.74
2023-05-06T20:14:02.626Z,57.06
2023-05-06T20:16:30.583Z,57.30
2023-05-06T20:19:00.074Z,57.26
2023-05-06T20:21:27.789Z,57.37
2023-05-06T20:23:55.452Z,57.04
2023-05-06T20:26:25.055Z,57.17
2023-05-06T20:28:54.196Z,57.21
2023-05-06T20:31:22.471Z,57.65
2023-05-06T20:33:50.365Z,58.01
2023-05-06T20:36:27.187Z,58.27
2023-05-06T20:38:54.868Z,58.41
2023-05-06T20:41:22.487Z,58.69
2023-05-06T20:43:52.783Z,59.00
2023-05-06T20:46:20.590Z,58.96
2023-05-06T20:48:48.362Z,59.04
2023-05-06T20:51:16.741Z,59.29
2023-05-06T20:53:46.109Z,59.43
2023-05-06T20:56:18.470Z,59.74
2023-05-06T20:58:46.031Z,59.60
2023-05-06T21:01:13.578Z,59.75
2023-05-06T21:03:43.653Z,59.80
2023-05-06T21:06:11.477Z,59.86
2023-05-06T21:08:39.117Z,59.64
2023-05-06T21:11:08.050Z,60.14
2023-05-06T21:13:35.832Z,60.10
2023-05-06T21:16:03.624Z,59.88
2023-05-06T21:18:31.293Z,60.11
2023-05-06T21:20:59.735Z,60.11
2023-05-06T21:23:27.566Z,60.28
2023-05-06T21:25:55.211Z,60.15
2023-05-06T21:28:24.605Z,60.95
2023-05-06T21:30:52.226Z,60.77
2023-05-06T21:33:20.185Z,60.75
2023-05-06T21:35:47.805Z,60.65
2023-05-06T21:38:15.349Z,60.91
2023-05-06T21:40:42.894Z,60.99
2023-05-06T21:43:10.531Z,60.91
2023-05-06T21:45:39.416Z,61.34
2023-05-06T21:48:07.709Z,61.53
2023-05-06T21:50:37.470Z,61.93
2023-05-06T21:53:05.101Z,62.23
2023-05-06T21:55:32.721Z,62.30
2023-05-06T21:58:00.316Z,62.27
2023-05-06T22:00:28.360Z,62.24
2023-05-06T22:02:57.543Z,62.59
2023-05-06T22:05:25.245Z,62.11
2023-05-06T22:07:52.806Z,62.01
2023-05-06T22:10:20.420Z,62.45
2023-05-06T22:12:47.989Z,62.51
2023-05-06T22:15:15.785Z,62.64
2023-05-06T22:17:43.458Z,62.57
2023-05-06T22:20:15.123Z,62.91
2023-05-06T22:22:43.194Z,62.66
2023-05-06T22:25:11.708Z,62.61
2023-05-06T22:27:39.527Z,62.84
2023-05-06T22:30:08.398Z,63.04
2023-05-06T22:32:36.051Z,66.46
2023-05-06T22:35:04.092Z,64.06
2023-05-06T22:37:33.068Z,63.16
2023-05-06T22:40:00.632Z,62.93
2023-05-06T22:42:28.237Z,63.50
2023-05-06T22:44:55.836Z,63.12
2023-05-06T22:47:23.510Z,62.72
2023-05-06T22:49:51.096Z,63.56
